sensor_id;sensor_type;location;lat;lon;timestamp;P1;durP1;ratioP1;P2;durP2;ratioP2
5414;SDS011;2730;51.512;7.504;2022-10-03T05:03:41;26.70;;;8.80;;
5414;SDS011;2730;51.512;7.504;2022-10-03T05:09:00;33.05;;;8.48;;
5414;SDS011;2730;51.512;7.504;2022-10-03T05:11:44;18.90;;;7.85;;
5414;SDS011;2730;51.512;7.504;2022-10-03T05:14:23;21.05;;;7.65;;
5414;SDS011;2730;51.512;7.504;2022-10-03T05:16:59;26.30;;;7.47;;
5414;SDS011;2730;51.512;7.504;2022-10-03T05:19:40;18.77;;;8.30;;
5414;SDS011;2730;51.512;7.504;2022-10-03T05:22:16;19.25;;;8.18;;
5414;SDS011;2730;51.512;7.504;2022-10-03T05:24:54;22.45;;;7.07;;
5414;SDS011;2730;51.512;7.504;2022-10-03T05:27:29;23.70;;;6.88;;
5414;SDS011;2730;51.512;7.504;2022-10-03T05:30:16;20.85;;;7.35;;
5414;SDS011;2730;51.512;7.504;2022-10-03T05:32:52;24.17;;;8.75;;
5414;SDS011;2730;51.512;7.504;2022-10-03T05:35:26;29.70;;;7.47;;
5414;SDS011;2730;51.512;7.504;2022-10-03T05:37:59;24.80;;;7.65;;
5414;SDS011;2730;51.512;7.504;2022-10-03T05:40:39;35.83;;;8.60;;
5414;SDS011;2730;51.512;7.504;2022-10-03T05:43:13;23.23;;;8.65;;
5414;SDS011;2730;51.512;7.504;2022-10-03T05:45:55;24.77;;;9.00;;
5414;SDS011;2730;51.512;7.504;2022-10-03T05:48:30;21.25;;;8.95;;
5414;SDS011;2730;51.512;7.504;2022-10-03T05:51:10;23.85;;;9.30;;
5414;SDS011;2730;51.512;7.504;2022-10-03T05:57:02;25.38;;;9.80;;
5414;SDS011;2730;51.512;7.504;2022-10-03T05:59:59;30.60;;;9.02;;
5414;SDS011;2730;51.512;7.504;2022-10-03T06:05:29;34.42;;;9.48;;
5414;SDS011;2730;51.512;7.504;2022-10-03T06:08:05;26.00;;;8.30;;
5414;SDS011;2730;51.512;7.504;2022-10-03T06:10:53;22.83;;;9.63;;
5414;SDS011;2730;51.512;7.504;2022-10-03T06:13:33;26.15;;;9.60;;
5414;SDS011;2730;51.512;7.504;2022-10-03T06:16:14;24.20;;;9.15;;
5414;SDS011;2730;51.512;7.504;2022-10-03T06:18:55;23.63;;;9.63;;
5414;SDS011;2730;51.512;7.504;2022-10-03T06:27:57;29.20;;;8.93;;
5414;SDS011;2730;51.512;7.504;2022-10-03T06:30:58;23.17;;;8.43;;
5414;SDS011;2730;51.512;7.504;2022-10-03T06:36:51;28.63;;;8.85;;
5414;SDS011;2730;51.512;7.504;2022-10-03T06:46:04;24.77;;;8.77;;
5414;SDS011;2730;51.512;7.504;2022-10-03T06:49:03;22.83;;;8.32;;
5414;SDS011;2730;51.512;7.504;2022-10-03T06:58:00;34.80;;;9.25;;
5414;SDS011;2730;51.512;7.504;2022-10-03T07:01:18;23.50;;;7.10;;
5414;SDS011;2730;51.512;7.504;2022-10-03T07:04:06;22.30;;;7.85;;
5414;SDS011;2730;51.512;7.504;2022-10-03T07:07:11;22.38;;;8.50;;
5414;SDS011;2730;51.512;7.504;2022-10-03T07:10:14;22.95;;;8.02;;
5414;SDS011;2730;51.512;7.504;2022-10-03T07:13:02;24.20;;;10.20;;
5414;SDS011;2730;51.512;7.504;2022-10-03T07:15:46;26.92;;;8.25;;
5414;SDS011;2730;51.512;7.504;2022-10-03T07:28:05;16.35;;;8.05;;
5414;SDS011;2730;51.512;7.504;2022-10-03T07:30:57;24.52;;;7.03;;
5414;SDS011;2730;51.512;7.504;2022-10-03T07:36:30;24.60;;;8.13;;
5414;SDS011;2730;51.512;7.504;2022-10-03T07:39:24;18.80;;;6.88;;
5414;SDS011;2730;51.512;7.504;2022-10-03T07:42:19;21.67;;;7.57;;
5414;SDS011;2730;51.512;7.504;2022-10-03T07:45:22;16.17;;;6.90;;
5414;SDS011;2730;51.512;7.504;2022-10-03T07:51:11;19.45;;;6.78;;
5414;SDS011;2730;51.512;7.504;2022-10-03T08:00:04;15.57;;;6.32;;
5414;SDS011;2730;51.512;7.504;2022-10-03T08:02:44;15.82;;;6.72;;
5414;SDS011;2730;51.512;7.504;2022-10-03T08:05:45;16.05;;;5.90;;
5414;SDS011;2730;51.512;7.504;2022-10-03T08:08:38;21.58;;;6.43;;
5414;SDS011;2730;51.512;7.504;2022-10-03T08:11:32;14.85;;;5.70;;
5414;SDS011;2730;51.512;7.504;2022-10-03T08:14:22;15.30;;;5.13;;
5414;SDS011;2730;51.512;7.504;2022-10-03T08:17:08;23.15;;;6.78;;
5414;SDS011;2730;51.512;7.504;2022-10-03T08:20:06;13.63;;;5.38;;
5414;SDS011;2730;51.512;7.504;2022-10-03T08:22:57;10.63;;;5.43;;
5414;SDS011;2730;51.512;7.504;2022-10-03T08:25:45;26.27;;;4.80;;
5414;SDS011;2730;51.512;7.504;2022-10-03T08:31:14;11.63;;;4.50;;
5414;SDS011;2730;51.512;7.504;2022-10-03T08:34:12;17.00;;;5.67;;
5414;SDS011;2730;51.512;7.504;2022-10-03T08:37:06;14.70;;;4.87;;
5414;SDS011;2730;51.512;7.504;2022-10-03T08:39:58;12.37;;;4.73;;
5414;SDS011;2730;51.512;7.504;2022-10-03T08:43:10;16.07;;;5.00;;
5414;SDS011;2730;51.512;7.504;2022-10-03T08:46:10;11.40;;;6.20;;
5414;SDS011;2730;51.512;7.504;2022-10-03T08:49:00;18.90;;;8.03;;
5414;SDS011;2730;51.512;7.504;2022-10-03T08:58:11;11.30;;;3.70;;
5414;SDS011;2730;51.512;7.504;2022-10-03T09:03:59;10.63;;;3.47;;
5414;SDS011;2730;51.512;7.504;2022-10-03T09:07:00;12.13;;;5.03;;
5414;SDS011;2730;51.512;7.504;2022-10-03T09:12:41;18.00;;;3.90;;
5414;SDS011;2730;51.512;7.504;2022-10-03T09:15:39;13.10;;;4.73;;
5414;SDS011;2730;51.512;7.504;2022-10-03T09:21:31;11.10;;;3.90;;
5414;SDS011;2730;51.512;7.504;2022-10-03T09:24:25;11.83;;;3.90;;
5414;SDS011;2730;51.512;7.504;2022-10-03T09:27:14;10.73;;;4.30;;
5414;SDS011;2730;51.512;7.504;2022-10-03T09:35:55;9.00;;;3.77;;
5414;SDS011;2730;51.512;7.504;2022-10-03T09:38:46;12.63;;;3.80;;
5414;SDS011;2730;51.512;7.504;2022-10-03T09:50:47;14.47;;;4.13;;
5414;SDS011;2730;51.512;7.504;2022-10-03T10:00:07;5.60;;;2.20;;
5414;SDS011;2730;51.512;7.504;2022-10-03T10:03:01;7.87;;;2.70;;
5414;SDS011;2730;51.512;7.504;2022-10-03T10:05:56;15.80;;;2.57;;
5414;SDS011;2730;51.512;7.504;2022-10-03T10:11:49;10.17;;;2.97;;
5414;SDS011;2730;51.512;7.504;2022-10-03T10:14:57;12.87;;;2.60;;
5414;SDS011;2730;51.512;7.504;2022-10-03T10:21:13;10.90;;;2.63;;
5414;SDS011;2730;51.512;7.504;2022-10-03T10:24:15;8.17;;;1.93;;
5414;SDS011;2730;51.512;7.504;2022-10-03T10:27:09;8.03;;;2.57;;
5414;SDS011;2730;51.512;7.504;2022-10-03T10:30:10;6.50;;;2.20;;
5414;SDS011;2730;51.512;7.504;2022-10-03T10:33:03;8.30;;;2.30;;
5414;SDS011;2730;51.512;7.504;2022-10-03T10:36:06;9.03;;;2.60;;
5414;SDS011;2730;51.512;7.504;2022-10-03T10:42:15;9.03;;;1.60;;
5414;SDS011;2730;51.512;7.504;2022-10-03T10:45:31;5.20;;;1.63;;
5414;SDS011;2730;51.512;7.504;2022-10-03T10:48:17;6.77;;;2.40;;
5414;SDS011;2730;51.512;7.504;2022-10-03T10:51:21;7.93;;;1.40;;
5414;SDS011;2730;51.512;7.504;2022-10-03T10:54:20;7.80;;;2.50;;
5414;SDS011;2730;51.512;7.504;2022-10-03T10:57:15;6.90;;;1.73;;
5414;SDS011;2730;51.512;7.504;2022-10-03T11:15:53;3.53;;;1.27;;
5414;SDS011;2730;51.512;7.504;2022-10-03T11:22:05;4.90;;;1.53;;
5414;SDS011;2730;51.512;7.504;2022-10-03T11:31:25;5.28;;;1.60;;
5414;SDS011;2730;51.512;7.504;2022-10-03T11:37:37;8.00;;;1.70;;
5414;SDS011;2730;51.512;7.504;2022-10-03T11:40:21;2.67;;;1.70;;
5414;SDS011;2730;51.512;7.504;2022-10-03T11:42:55;4.73;;;1.87;;
5414;SDS011;2730;51.512;7.504;2022-10-03T11:45:52;7.13;;;2.87;;
5414;SDS011;2730;51.512;7.504;2022-10-03T11:48:29;11.20;;;3.30;;
5414;SDS011;2730;51.512;7.504;2022-10-03T11:51:05;11.50;;;2.20;;
5414;SDS011;2730;51.512;7.504;2022-10-03T11:53:41;2.17;;;1.50;;
5414;SDS011;2730;51.512;7.504;2022-10-03T11:56:19;3.57;;;1.40;;
5414;SDS011;2730;51.512;7.504;2022-10-03T11:59:02;2.50;;;1.30;;
5414;SDS011;2730;51.512;7.504;2022-10-03T12:01:54;3.70;;;1.53;;
5414;SDS011;2730;51.512;7.504;2022-10-03T12:04:38;6.90;;;2.07;;
5414;SDS011;2730;51.512;7.504;2022-10-03T12:07:14;4.20;;;1.53;;
5414;SDS011;2730;51.512;7.504;2022-10-03T12:10:18;7.57;;;2.40;;
5414;SDS011;2730;51.512;7.504;2022-10-03T12:12:58;8.83;;;1.97;;
5414;SDS011;2730;51.512;7.504;2022-10-03T12:15:31;6.93;;;1.77;;
5414;SDS011;2730;51.512;7.504;2022-10-03T12:18:04;7.47;;;1.73;;
5414;SDS011;2730;51.512;7.504;2022-10-03T12:23:31;3.77;;;1.63;;
5414;SDS011;2730;51.512;7.504;2022-10-03T12:26:19;7.67;;;1.53;;
5414;SDS011;2730;51.512;7.504;2022-10-03T12:28:57;2.87;;;1.40;;
5414;SDS011;2730;51.512;7.504;2022-10-03T12:31:28;7.43;;;1.80;;
5414;SDS011;2730;51.512;7.504;2022-10-03T12:34:02;9.40;;;1.50;;
5414;SDS011;2730;51.512;7.504;2022-10-03T12:36:40;4.93;;;1.40;;
5414;SDS011;2730;51.512;7.504;2022-10-03T12:39:20;4.17;;;1.50;;
5414;SDS011;2730;51.512;7.504;2022-10-03T12:42:03;4.20;;;1.17;;
5414;SDS011;2730;51.512;7.504;2022-10-03T12:44:44;3.73;;;1.50;;
5414;SDS011;2730;51.512;7.504;2022-10-03T12:47:22;4.50;;;1.50;;
5414;SDS011;2730;51.512;7.504;2022-10-03T12:49:55;9.20;;;1.77;;
5414;SDS011;2730;51.512;7.504;2022-10-03T12:52:32;2.40;;;1.60;;
5414;SDS011;2730;51.512;7.504;2022-10-03T12:55:12;3.37;;;1.47;;
5414;SDS011;2730;51.512;7.504;2022-10-03T12:57:53;3.33;;;1.27;;
5414;SDS011;2730;51.512;7.504;2022-10-03T13:00:26;4.90;;;1.30;;
5414;SDS011;2730;51.512;7.504;2022-10-03T13:03:13;7.13;;;1.40;;
5414;SDS011;2730;51.512;7.504;2022-10-03T13:05:51;3.00;;;1.30;;
5414;SDS011;2730;51.512;7.504;2022-10-03T13:08:36;3.10;;;1.60;;
5414;SDS011;2730;51.512;7.504;2022-10-03T13:11:14;3.60;;;1.73;;
5414;SDS011;2730;51.512;7.504;2022-10-03T13:13:56;8.67;;;1.47;;
5414;SDS011;2730;51.512;7.504;2022-10-03T13:16:30;5.13;;;1.57;;
5414;SDS011;2730;51.512;7.504;2022-10-03T13:19:03;2.80;;;1.20;;
5414;SDS011;2730;51.512;7.504;2022-10-03T13:21:50;4.23;;;1.13;;
5414;SDS011;2730;51.512;7.504;2022-10-03T13:24:30;9.47;;;1.63;;
5414;SDS011;2730;51.512;7.504;2022-10-03T13:27:04;2.30;;;1.53;;
5414;SDS011;2730;51.512;7.504;2022-10-03T13:29:42;1.93;;;1.00;;
5414;SDS011;2730;51.512;7.504;2022-10-03T13:32:16;3.63;;;1.33;;
5414;SDS011;2730;51.512;7.504;2022-10-03T13:34:56;5.43;;;2.30;;
5414;SDS011;2730;51.512;7.504;2022-10-03T13:41:10;5.70;;;1.37;;
5414;SDS011;2730;51.512;7.504;2022-10-03T13:43:54;3.60;;;1.00;;
5414;SDS011;2730;51.512;7.504;2022-10-03T13:46:25;2.83;;;1.00;;
5414;SDS011;2730;51.512;7.504;2022-10-03T13:48:58;5.63;;;1.40;;
5414;SDS011;2730;51.512;7.504;2022-10-03T13:51:35;9.70;;;1.50;;
5414;SDS011;2730;51.512;7.504;2022-10-03T13:54:12;3.90;;;1.27;;
5414;SDS011;2730;51.512;7.504;2022-10-03T13:56:51;3.90;;;1.63;;
5414;SDS011;2730;51.512;7.504;2022-10-03T13:59:35;3.30;;;1.70;;
5414;SDS011;2730;51.512;7.504;2022-10-03T14:02:16;4.40;;;1.50;;
5414;SDS011;2730;51.512;7.504;2022-10-03T14:05:06;1.53;;;1.23;;
5414;SDS011;2730;51.512;7.504;2022-10-03T14:07:53;2.80;;;1.43;;
5414;SDS011;2730;51.512;7.504;2022-10-03T14:10:29;1.73;;;1.03;;
5414;SDS011;2730;51.512;7.504;2022-10-03T14:13:16;6.47;;;1.20;;
5414;SDS011;2730;51.512;7.504;2022-10-03T14:15:50;3.23;;;1.40;;
5414;SDS011;2730;51.512;7.504;2022-10-03T14:18:29;6.40;;;1.50;;
5414;SDS011;2730;51.512;7.504;2022-10-03T14:21:18;9.67;;;1.80;;
5414;SDS011;2730;51.512;7.504;2022-10-03T14:24:14;2.77;;;1.57;;
5414;SDS011;2730;51.512;7.504;2022-10-03T14:26:54;3.43;;;1.60;;
5414;SDS011;2730;51.512;7.504;2022-10-03T14:29:27;3.40;;;1.60;;
5414;SDS011;2730;51.512;7.504;2022-10-03T14:32:00;3.67;;;1.40;;
5414;SDS011;2730;51.512;7.504;2022-10-03T14:34:36;4.60;;;1.53;;
5414;SDS011;2730;51.512;7.504;2022-10-03T14:37:16;6.20;;;1.37;;
5414;SDS011;2730;51.512;7.504;2022-10-03T14:39:54;4.70;;;1.93;;
5414;SDS011;2730;51.512;7.504;2022-10-03T14:42:32;3.70;;;1.43;;
5414;SDS011;2730;51.512;7.504;2022-10-03T14:45:23;3.70;;;1.63;;
5414;SDS011;2730;51.512;7.504;2022-10-03T14:47:55;3.07;;;1.47;;
5414;SDS011;2730;51.512;7.504;2022-10-03T14:50:26;5.73;;;1.50;;
5414;SDS011;2730;51.512;7.504;2022-10-03T14:52:56;8.43;;;2.23;;
5414;SDS011;2730;51.512;7.504;2022-10-03T14:55:29;2.30;;;1.30;;
5414;SDS011;2730;51.512;7.504;2022-10-03T14:57:58;1.87;;;1.33;;
5414;SDS011;2730;51.512;7.504;2022-10-03T15:00:36;5.37;;;1.83;;
5414;SDS011;2730;51.512;7.504;2022-10-03T15:03:21;4.83;;;1.90;;
5414;SDS011;2730;51.512;7.504;2022-10-03T15:05:57;1.73;;;1.50;;
5414;SDS011;2730;51.512;7.504;2022-10-03T15:08:29;2.33;;;1.47;;
5414;SDS011;2730;51.512;7.504;2022-10-03T15:10:59;8.70;;;1.63;;
5414;SDS011;2730;51.512;7.504;2022-10-03T15:13:27;3.50;;;1.83;;
5414;SDS011;2730;51.512;7.504;2022-10-03T15:16:01;4.77;;;1.47;;
5414;SDS011;2730;51.512;7.504;2022-10-03T15:18:28;5.27;;;1.50;;
5414;SDS011;2730;51.512;7.504;2022-10-03T15:20:56;3.03;;;1.67;;
5414;SDS011;2730;51.512;7.504;2022-10-03T15:23:25;6.83;;;1.90;;
5414;SDS011;2730;51.512;7.504;2022-10-03T15:25:55;2.97;;;1.40;;
5414;SDS011;2730;51.512;7.504;2022-10-03T15:28:25;5.50;;;1.40;;
5414;SDS011;2730;51.512;7.504;2022-10-03T15:30:54;2.63;;;1.40;;
5414;SDS011;2730;51.512;7.504;2022-10-03T15:33:34;6.77;;;1.60;;
5414;SDS011;2730;51.512;7.504;2022-10-03T15:36:05;5.80;;;1.30;;
5414;SDS011;2730;51.512;7.504;2022-10-03T15:38:37;1.40;;;0.90;;
5414;SDS011;2730;51.512;7.504;2022-10-03T15:41:06;5.97;;;2.50;;
5414;SDS011;2730;51.512;7.504;2022-10-03T15:43:40;3.63;;;1.37;;
5414;SDS011;2730;51.512;7.504;2022-10-03T15:46:15;6.67;;;1.30;;
5414;SDS011;2730;51.512;7.504;2022-10-03T15:48:51;2.50;;;1.40;;
5414;SDS011;2730;51.512;7.504;2022-10-03T15:51:19;4.03;;;1.13;;
5414;SDS011;2730;51.512;7.504;2022-10-03T15:53:51;4.20;;;1.40;;
5414;SDS011;2730;51.512;7.504;2022-10-03T15:56:22;7.97;;;1.53;;
5414;SDS011;2730;51.512;7.504;2022-10-03T15:58:53;7.20;;;2.47;;
5414;SDS011;2730;51.512;7.504;2022-10-03T16:01:24;5.17;;;1.60;;
5414;SDS011;2730;51.512;7.504;2022-10-03T16:03:55;4.63;;;1.43;;
5414;SDS011;2730;51.512;7.504;2022-10-03T16:06:27;3.97;;;1.40;;
5414;SDS011;2730;51.512;7.504;2022-10-03T16:09:02;8.73;;;3.07;;
5414;SDS011;2730;51.512;7.504;2022-10-03T16:11:38;5.50;;;2.50;;
5414;SDS011;2730;51.512;7.504;2022-10-03T16:14:14;12.13;;;1.40;;
5414;SDS011;2730;51.512;7.504;2022-10-03T16:16:45;7.30;;;2.20;;
5414;SDS011;2730;51.512;7.504;2022-10-03T16:19:22;5.47;;;1.43;;
5414;SDS011;2730;51.512;7.504;2022-10-03T16:22:05;6.23;;;1.57;;
5414;SDS011;2730;51.512;7.504;2022-10-03T16:24:42;1.73;;;1.63;;
5414;SDS011;2730;51.512;7.504;2022-10-03T16:27:16;3.97;;;1.90;;
5414;SDS011;2730;51.512;7.504;2022-10-03T16:29:49;5.07;;;1.60;;
5414;SDS011;2730;51.512;7.504;2022-10-03T16:32:23;5.10;;;1.40;;
5414;SDS011;2730;51.512;7.504;2022-10-03T16:34:55;4.50;;;1.83;;
5414;SDS011;2730;51.512;7.504;2022-10-03T16:37:27;2.00;;;1.67;;
5414;SDS011;2730;51.512;7.504;2022-10-03T16:39:57;7.10;;;1.77;;
5414;SDS011;2730;51.512;7.504;2022-10-03T16:42:28;5.03;;;1.50;;
5414;SDS011;2730;51.512;7.504;2022-10-03T16:45:05;8.20;;;2.43;;
5414;SDS011;2730;51.512;7.504;2022-10-03T16:47:44;4.53;;;1.90;;
5414;SDS011;2730;51.512;7.504;2022-10-03T16:50:36;4.30;;;1.77;;
5414;SDS011;2730;51.512;7.504;2022-10-03T16:53:07;6.30;;;1.97;;
5414;SDS011;2730;51.512;7.504;2022-10-03T16:55:35;8.02;;;1.98;;
5414;SDS011;2730;51.512;7.504;2022-10-03T16:58:13;2.35;;;1.95;;
5414;SDS011;2730;51.512;7.504;2022-10-03T17:00:48;5.18;;;2.17;;
5414;SDS011;2730;51.512;7.504;2022-10-03T17:03:22;7.17;;;2.60;;
5414;SDS011;2730;51.512;7.504;2022-10-03T17:05:53;3.38;;;1.92;;
5414;SDS011;2730;51.512;7.504;2022-10-03T17:08:25;2.55;;;1.80;;
5414;SDS011;2730;51.512;7.504;2022-10-03T17:10:57;2.85;;;1.50;;
5414;SDS011;2730;51.512;7.504;2022-10-03T17:13:27;3.83;;;1.98;;
5414;SDS011;2730;51.512;7.504;2022-10-03T17:15:59;5.47;;;1.77;;
5414;SDS011;2730;51.512;7.504;2022-10-03T17:18:34;6.22;;;1.92;;
5414;SDS011;2730;51.512;7.504;2022-10-03T17:21:09;5.18;;;2.17;;
5414;SDS011;2730;51.512;7.504;2022-10-03T17:23:47;9.10;;;2.05;;
5414;SDS011;2730;51.512;7.504;2022-10-03T17:26:22;6.85;;;2.40;;
5414;SDS011;2730;51.512;7.504;2022-10-03T17:28:54;4.32;;;1.88;;
5414;SDS011;2730;51.512;7.504;2022-10-03T17:31:28;8.25;;;2.22;;
5414;SDS011;2730;51.512;7.504;2022-10-03T17:34:02;10.70;;;3.17;;
5414;SDS011;2730;51.512;7.504;2022-10-03T17:37:00;4.25;;;3.05;;
5414;SDS011;2730;51.512;7.504;2022-10-03T17:39:44;5.35;;;3.20;;
5414;SDS011;2730;51.512;7.504;2022-10-03T17:42:25;10.50;;;4.13;;
5414;SDS011;2730;51.512;7.504;2022-10-03T17:44:58;7.38;;;4.50;;
5414;SDS011;2730;51.512;7.504;2022-10-03T17:47:38;9.15;;;4.93;;
5414;SDS011;2730;51.512;7.504;2022-10-03T17:50:17;8.32;;;5.50;;
5414;SDS011;2730;51.512;7.504;2022-10-03T17:52:49;9.32;;;4.97;;
5414;SDS011;2730;51.512;7.504;2022-10-03T17:55:20;10.13;;;5.25;;
5414;SDS011;2730;51.512;7.504;2022-10-03T17:58:02;8.55;;;5.78;;
5414;SDS011;2730;51.512;7.504;2022-10-03T18:00:33;21.98;;;7.05;;
5414;SDS011;2730;51.512;7.504;2022-10-03T18:03:03;12.18;;;7.50;;
5414;SDS011;2730;51.512;7.504;2022-10-03T18:05:35;13.98;;;8.00;;
5414;SDS011;2730;51.512;7.504;2022-10-03T18:08:06;14.90;;;7.63;;
5414;SDS011;2730;51.512;7.504;2022-10-03T18:10:45;17.95;;;8.30;;
5414;SDS011;2730;51.512;7.504;2022-10-03T18:13:15;12.98;;;8.20;;
5414;SDS011;2730;51.512;7.504;2022-10-03T18:15:53;17.20;;;8.02;;
5414;SDS011;2730;51.512;7.504;2022-10-03T18:21:50;14.85;;;7.00;;
5414;SDS011;2730;51.512;7.504;2022-10-03T18:24:29;15.77;;;6.00;;
5414;SDS011;2730;51.512;7.504;2022-10-03T18:27:24;10.18;;;6.38;;
5414;SDS011;2730;51.512;7.504;2022-10-03T18:30:12;8.85;;;5.90;;
5414;SDS011;2730;51.512;7.504;2022-10-03T18:32:44;12.80;;;5.57;;
5414;SDS011;2730;51.512;7.504;2022-10-03T18:35:12;8.73;;;5.70;;
5414;SDS011;2730;51.512;7.504;2022-10-03T18:37:54;10.05;;;5.00;;
5414;SDS011;2730;51.512;7.504;2022-10-03T18:40:33;5.35;;;4.03;;
5414;SDS011;2730;51.512;7.504;2022-10-03T18:43:14;9.90;;;5.20;;
5414;SDS011;2730;51.512;7.504;2022-10-03T18:45:51;11.85;;;5.40;;
5414;SDS011;2730;51.512;7.504;2022-10-03T18:48:24;9.68;;;5.18;;
5414;SDS011;2730;51.512;7.504;2022-10-03T18:50:57;11.63;;;6.30;;
5414;SDS011;2730;51.512;7.504;2022-10-03T18:53:30;12.00;;;5.63;;
5414;SDS011;2730;51.512;7.504;2022-10-03T18:56:02;11.27;;;6.85;;
5414;SDS011;2730;51.512;7.504;2022-10-03T18:58:33;16.23;;;6.88;;
5414;SDS011;2730;51.512;7.504;2022-10-03T19:01:04;17.65;;;8.23;;
5414;SDS011;2730;51.512;7.504;2022-10-03T19:03:33;9.63;;;7.10;;
5414;SDS011;2730;51.512;7.504;2022-10-03T19:06:04;9.93;;;6.03;;
5414;SDS011;2730;51.512;7.504;2022-10-03T19:08:37;17.17;;;8.50;;
5414;SDS011;2730;51.512;7.504;2022-10-03T19:11:12;16.73;;;7.78;;
5414;SDS011;2730;51.512;7.504;2022-10-03T19:13:44;13.45;;;7.70;;
5414;SDS011;2730;51.512;7.504;2022-10-03T19:19:23;11.18;;;7.68;;
5414;SDS011;2730;51.512;7.504;2022-10-03T19:21:59;18.23;;;8.35;;
5414;SDS011;2730;51.512;7.504;2022-10-03T19:24:29;16.13;;;8.95;;
5414;SDS011;2730;51.512;7.504;2022-10-03T19:27:00;14.63;;;8.32;;
5414;SDS011;2730;51.512;7.504;2022-10-03T19:29:32;14.68;;;7.25;;
5414;SDS011;2730;51.512;7.504;2022-10-03T19:32:01;14.05;;;6.55;;
5414;SDS011;2730;51.512;7.504;2022-10-03T19:34:35;17.58;;;8.68;;
5414;SDS011;2730;51.512;7.504;2022-10-03T19:37:06;21.52;;;11.52;;
5414;SDS011;2730;51.512;7.504;2022-10-03T19:39:37;22.88;;;11.07;;
5414;SDS011;2730;51.512;7.504;2022-10-03T19:42:17;26.95;;;13.93;;
5414;SDS011;2730;51.512;7.504;2022-10-03T19:44:56;31.90;;;14.80;;
5414;SDS011;2730;51.512;7.504;2022-10-03T19:47:28;23.58;;;11.05;;
5414;SDS011;2730;51.512;7.504;2022-10-03T19:50:01;27.75;;;12.05;;
5414;SDS011;2730;51.512;7.504;2022-10-03T19:52:36;20.48;;;10.85;;
5414;SDS011;2730;51.512;7.504;2022-10-03T19:55:12;17.20;;;9.13;;
5414;SDS011;2730;51.512;7.504;2022-10-03T19:57:50;14.80;;;8.40;;
5414;SDS011;2730;51.512;7.504;2022-10-03T20:00:21;14.43;;;7.00;;
5414;SDS011;2730;51.512;7.504;2022-10-03T20:02:53;14.10;;;6.80;;
5414;SDS011;2730;51.512;7.504;2022-10-03T20:05:22;11.82;;;7.40;;
5414;SDS011;2730;51.512;7.504;2022-10-03T20:07:56;18.23;;;7.60;;
5414;SDS011;2730;51.512;7.504;2022-10-03T20:10:32;9.95;;;6.22;;
5414;SDS011;2730;51.512;7.504;2022-10-03T20:13:09;19.80;;;6.10;;
5414;SDS011;2730;51.512;7.504;2022-10-03T20:15:41;18.13;;;6.18;;
5414;SDS011;2730;51.512;7.504;2022-10-03T20:18:14;14.07;;;5.65;;
5414;SDS011;2730;51.512;7.504;2022-10-03T20:20:47;14.32;;;5.95;;
5414;SDS011;2730;51.512;7.504;2022-10-03T20:23:16;18.15;;;6.43;;
5414;SDS011;2730;51.512;7.504;2022-10-03T20:25:49;10.82;;;5.95;;
5414;SDS011;2730;51.512;7.504;2022-10-03T20:28:27;15.73;;;5.90;;
5414;SDS011;2730;51.512;7.504;2022-10-03T20:31:04;10.98;;;5.93;;
5414;SDS011;2730;51.512;7.504;2022-10-03T20:33:32;10.00;;;5.47;;
5414;SDS011;2730;51.512;7.504;2022-10-03T20:36:02;10.88;;;5.82;;
5414;SDS011;2730;51.512;7.504;2022-10-03T20:38:46;11.05;;;5.88;;
5414;SDS011;2730;51.512;7.504;2022-10-03T20:41:27;10.27;;;5.90;;
5414;SDS011;2730;51.512;7.504;2022-10-03T20:44:03;13.55;;;5.53;;
5414;SDS011;2730;51.512;7.504;2022-10-03T20:46:39;12.52;;;5.78;;
5414;SDS011;2730;51.512;7.504;2022-10-03T20:49:10;10.27;;;5.78;;
5414;SDS011;2730;51.512;7.504;2022-10-03T20:51:54;10.15;;;6.25;;
5414;SDS011;2730;51.512;7.504;2022-10-03T20:54:23;14.05;;;5.90;;
5414;SDS011;2730;51.512;7.504;2022-10-03T20:56:54;14.35;;;6.88;;
5414;SDS011;2730;51.512;7.504;2022-10-03T20:59:27;13.07;;;6.80;;
5414;SDS011;2730;51.512;7.504;2022-10-03T21:02:02;14.50;;;6.43;;
5414;SDS011;2730;51.512;7.504;2022-10-03T21:04:35;11.55;;;5.32;;
5414;SDS011;2730;51.512;7.504;2022-10-03T21:07:15;7.75;;;5.47;;
5414;SDS011;2730;51.512;7.504;2022-10-03T21:09:54;17.40;;;6.10;;
5414;SDS011;2730;51.512;7.504;2022-10-03T21:12:28;17.08;;;6.63;;
5414;SDS011;2730;51.512;7.504;2022-10-03T21:15:01;12.60;;;5.10;;
5414;SDS011;2730;51.512;7.504;2022-10-03T21:17:31;11.52;;;6.65;;
5414;SDS011;2730;51.512;7.504;2022-10-03T21:20:03;11.60;;;6.05;;
5414;SDS011;2730;51.512;7.504;2022-10-03T21:22:33;9.52;;;5.28;;
5414;SDS011;2730;51.512;7.504;2022-10-03T21:25:02;15.35;;;6.70;;
5414;SDS011;2730;51.512;7.504;2022-10-03T21:27:37;11.75;;;6.00;;
5414;SDS011;2730;51.512;7.504;2022-10-03T21:30:15;10.55;;;6.60;;
5414;SDS011;2730;51.512;7.504;2022-10-03T21:32:48;13.93;;;6.20;;
5414;SDS011;2730;51.512;7.504;2022-10-03T21:35:22;12.23;;;7.22;;
5414;SDS011;2730;51.512;7.504;2022-10-03T21:37:56;14.05;;;6.90;;
5414;SDS011;2730;51.512;7.504;2022-10-03T21:40:37;10.70;;;6.13;;
5414;SDS011;2730;51.512;7.504;2022-10-03T21:43:21;8.98;;;6.45;;
5414;SDS011;2730;51.512;7.504;2022-10-03T21:46:01;22.38;;;7.53;;
5414;SDS011;2730;51.512;7.504;2022-10-03T21:48:36;7.25;;;5.40;;
5414;SDS011;2730;51.512;7.504;2022-10-03T21:51:16;10.05;;;7.75;;
5414;SDS011;2730;51.512;7.504;2022-10-03T21:53:52;9.80;;;5.80;;
5414;SDS011;2730;51.512;7.504;2022-10-03T21:56:31;13.50;;;6.90;;
5414;SDS011;2730;51.512;7.504;2022-10-03T21:59:19;14.60;;;7.22;;
5414;SDS011;2730;51.512;7.504;2022-10-03T22:02:04;9.15;;;6.30;;
5414;SDS011;2730;51.512;7.504;2022-10-03T22:04:39;10.43;;;6.43;;
5414;SDS011;2730;51.512;7.504;2022-10-03T22:07:12;9.20;;;6.70;;
5414;SDS011;2730;51.512;7.504;2022-10-03T22:09:45;11.98;;;6.38;;
5414;SDS011;2730;51.512;7.504;2022-10-03T22:12:13;10.23;;;6.32;;
5414;SDS011;2730;51.512;7.504;2022-10-03T22:14:42;11.13;;;6.47;;
5414;SDS011;2730;51.512;7.504;2022-10-03T22:17:18;11.45;;;7.10;;
5414;SDS011;2730;51.512;7.504;2022-10-03T22:19:52;13.93;;;7.07;;
5414;SDS011;2730;51.512;7.504;2022-10-03T22:25:08;10.50;;;7.15;;
5414;SDS011;2730;51.512;7.504;2022-10-03T22:27:42;9.70;;;6.78;;
5414;SDS011;2730;51.512;7.504;2022-10-03T22:30:14;10.85;;;6.28;;
5414;SDS011;2730;51.512;7.504;2022-10-03T22:32:47;16.20;;;6.43;;
5414;SDS011;2730;51.512;7.504;2022-10-03T22:35:30;14.38;;;6.20;;
5414;SDS011;2730;51.512;7.504;2022-10-03T22:38:11;29.10;;;6.93;;
5414;SDS011;2730;51.512;7.504;2022-10-03T22:40:39;17.20;;;6.45;;
5414;SDS011;2730;51.512;7.504;2022-10-03T22:43:07;11.45;;;6.20;;
5414;SDS011;2730;51.512;7.504;2022-10-03T22:45:38;10.48;;;5.97;;
5414;SDS011;2730;51.512;7.504;2022-10-03T22:48:10;14.60;;;6.63;;
5414;SDS011;2730;51.512;7.504;2022-10-03T22:50:41;11.80;;;6.25;;
5414;SDS011;2730;51.512;7.504;2022-10-03T22:53:10;8.52;;;6.13;;
5414;SDS011;2730;51.512;7.504;2022-10-03T22:55:44;10.05;;;5.60;;
5414;SDS011;2730;51.512;7.504;2022-10-03T22:58:13;21.77;;;8.23;;
